Al-Jouf, Yemen

6:03 PM AST on July 22, 2014 (GMT +0300)
Marib (OYMB) Elev 3281 ft | 15.43 °N, 45.33 °E | Change Station

Current weather conditions updated 3 minutes ago

Scattered Clouds
Scattered Clouds
100 °F
Feels Like 100 °F
N
17
Wind Variable Wind from East

Tomorrow is forecast to be Cooler than today.

Today
High -- | Low -- °F
--% Chance of Precip.
Yesterday
High -- | Low -- °F
Precip. -- in
5:38 AM 6:35 PM
Waning Crescent, 17% visible
Pressure 29.71 in
Visibility 3.7 miles
Clouds Scattered Clouds 3000 ft
Dew Point 27 °F
Humidity 7%
Rainfall 0.00 in
Snow Depth Not available.
UV 0 out of 12
Pollen Not available.
Air Quality Not available.
Flu Activity Not available.
METAR OYMB 221500Z 08015KT 6000 SCT030 38/M03 Q1006

More Conditions Fewer Conditions

Pressure 29.71 in
Visibility 3.7 miles
Clouds Scattered Clouds 3000 ft
Dew Point 27 °F
Humidity 7%
Rainfall 0.00 in
Snow Depth Not available.
UV 0 out of 12
Pollen Not available.
Air Quality Not available.
Flu Activity Not available.
METAR OYMB 221500Z 08015KT 6000 SCT030 38/M03 Q1006

More Conditions Fewer Conditions

10-Day Weather Forecast

LIGHTNING

Thunderstorms are forecast for your area. Cloud conditions might be right for producing strikes in the next few days, though lightning itself cannot be forecasted.

Lightning is a visible electrical discharge produced by a thunderstorm, based on the build up of oppositely charged particles within a cloud and from cloud to ground.

Know how to stay safe in a lightning storm.

Check out these Lightning WunderPhotos!

Almanac

Astronomy

Jul. 22, 2014 Rise Set
Actual Time 5:38 AM AST 6:35 PM AST
Civil Twilight 5:15 AM AST 6:58 PM AST
Nautical Twilight 4:48 AM AST 7:26 PM AST
Astronomical Twilight 4:20 AM AST 7:54 PM AST
Moon 1:48 AM AST 2:57 PM AST
Length of Visible Light 13h 43m
Length of Day
12h 56m
Tomorrow will be 0m 33s shorter.
Waning Crescent, 17% of the Moon is Illuminated
Today
Waning Crescent
Jul 26
New
Aug 3
First Quarter
Aug 10
Full
Aug 17
Last Quarter

Today's Extremes

Country Highs Country Lows

Community

WunderPhotos

Upload Photos

1,736,257 photos uploaded!

Nearby

Snow Depth

Not available.

Earthquake Activity

City Distance Mag. Time & Date
No recent earthquake activity has been reported nearby.
Minimum magnitude displayed is 2.5.

Coastal Water Temperatures

Place Temperature
No Stations Reporting

Nearby Weather Stations

There are no personal weather stations in this area.